sensor_id;sensor_type;location;lat;lon;timestamp;P1;durP1;ratioP1;P2;durP2;ratioP2
70477;SDS011;57956;53.362;-1.518;2024-03-02T00:01:53;6.73;;;2.20;;
70477;SDS011;57956;53.362;-1.518;2024-03-02T00:04:18;9.55;;;2.25;;
70477;SDS011;57956;53.362;-1.518;2024-03-02T00:06:43;7.90;;;1.37;;
70477;SDS011;57956;53.362;-1.518;2024-03-02T00:09:09;4.10;;;1.73;;
70477;SDS011;57956;53.362;-1.518;2024-03-02T00:11:36;6.70;;;1.23;;
70477;SDS011;57956;53.362;-1.518;2024-03-02T00:14:01;7.33;;;2.80;;
70477;SDS011;57956;53.362;-1.518;2024-03-02T00:16:30;4.22;;;1.58;;
70477;SDS011;57956;53.362;-1.518;2024-03-02T00:18:56;3.53;;;1.67;;
70477;SDS011;57956;53.362;-1.518;2024-03-02T00:21:24;5.93;;;2.17;;
70477;SDS011;57956;53.362;-1.518;2024-03-02T00:23:52;6.43;;;1.77;;
70477;SDS011;57956;53.362;-1.518;2024-03-02T00:26:18;6.13;;;2.30;;
70477;SDS011;57956;53.362;-1.518;2024-03-02T00:28:44;6.68;;;2.15;;
70477;SDS011;57956;53.362;-1.518;2024-03-02T00:31:11;6.15;;;2.40;;
70477;SDS011;57956;53.362;-1.518;2024-03-02T00:36:07;4.72;;;1.67;;
70477;SDS011;57956;53.362;-1.518;2024-03-02T00:38:33;7.30;;;2.53;;
70477;SDS011;57956;53.362;-1.518;2024-03-02T00:41:00;10.80;;;1.98;;
70477;SDS011;57956;53.362;-1.518;2024-03-02T00:45:54;5.63;;;1.93;;
70477;SDS011;57956;53.362;-1.518;2024-03-02T00:48:19;5.07;;;2.33;;
70477;SDS011;57956;53.362;-1.518;2024-03-02T00:50:44;5.17;;;2.20;;
70477;SDS011;57956;53.362;-1.518;2024-03-02T00:53:10;6.40;;;2.13;;
70477;SDS011;57956;53.362;-1.518;2024-03-02T00:55:36;6.40;;;2.50;;
70477;SDS011;57956;53.362;-1.518;2024-03-02T00:58:02;5.80;;;2.05;;
70477;SDS011;57956;53.362;-1.518;2024-03-02T01:00:27;6.97;;;2.57;;
70477;SDS011;57956;53.362;-1.518;2024-03-02T01:02:52;8.83;;;2.13;;
70477;SDS011;57956;53.362;-1.518;2024-03-02T01:05:17;4.77;;;1.97;;
70477;SDS011;57956;53.362;-1.518;2024-03-02T01:07:43;5.60;;;2.13;;
70477;SDS011;57956;53.362;-1.518;2024-03-02T01:10:08;3.47;;;1.57;;
70477;SDS011;57956;53.362;-1.518;2024-03-02T01:12:34;5.65;;;2.13;;
70477;SDS011;57956;53.362;-1.518;2024-03-02T01:15:00;5.57;;;1.70;;
70477;SDS011;57956;53.362;-1.518;2024-03-02T01:17:25;9.77;;;2.23;;
70477;SDS011;57956;53.362;-1.518;2024-03-02T01:19:50;6.33;;;1.73;;
70477;SDS011;57956;53.362;-1.518;2024-03-02T01:22:15;4.23;;;1.87;;
70477;SDS011;57956;53.362;-1.518;2024-03-02T01:24:41;7.80;;;1.40;;
70477;SDS011;57956;53.362;-1.518;2024-03-02T01:27:07;7.63;;;2.25;;
70477;SDS011;57956;53.362;-1.518;2024-03-02T01:29:32;5.60;;;2.30;;
70477;SDS011;57956;53.362;-1.518;2024-03-02T01:31:58;8.07;;;1.87;;
70477;SDS011;57956;53.362;-1.518;2024-03-02T01:34:23;3.73;;;1.33;;
70477;SDS011;57956;53.362;-1.518;2024-03-02T01:36:48;5.97;;;2.00;;
70477;SDS011;57956;53.362;-1.518;2024-03-02T01:39:14;4.23;;;1.50;;
70477;SDS011;57956;53.362;-1.518;2024-03-02T01:41:39;7.97;;;2.23;;
70477;SDS011;57956;53.362;-1.518;2024-03-02T01:44:04;3.50;;;1.00;;
70477;SDS011;57956;53.362;-1.518;2024-03-02T01:46:29;6.28;;;1.48;;
70477;SDS011;57956;53.362;-1.518;2024-03-02T01:48:54;5.07;;;1.80;;
70477;SDS011;57956;53.362;-1.518;2024-03-02T01:51:20;5.60;;;2.10;;
70477;SDS011;57956;53.362;-1.518;2024-03-02T01:53:45;4.40;;;1.77;;
70477;SDS011;57956;53.362;-1.518;2024-03-02T01:56:10;5.00;;;2.13;;
70477;SDS011;57956;53.362;-1.518;2024-03-02T01:58:36;5.60;;;1.53;;
70477;SDS011;57956;53.362;-1.518;2024-03-02T02:01:01;4.72;;;2.35;;
70477;SDS011;57956;53.362;-1.518;2024-03-02T02:03:27;10.13;;;1.87;;
70477;SDS011;57956;53.362;-1.518;2024-03-02T02:05:52;6.63;;;2.10;;
70477;SDS011;57956;53.362;-1.518;2024-03-02T02:08:17;7.90;;;1.87;;
70477;SDS011;57956;53.362;-1.518;2024-03-02T02:10:42;5.40;;;2.37;;
70477;SDS011;57956;53.362;-1.518;2024-03-02T02:13:08;8.13;;;2.00;;
70477;SDS011;57956;53.362;-1.518;2024-03-02T02:15:33;7.00;;;1.87;;
70477;SDS011;57956;53.362;-1.518;2024-03-02T02:18:01;5.10;;;1.95;;
70477;SDS011;57956;53.362;-1.518;2024-03-02T02:20:26;4.70;;;1.63;;
70477;SDS011;57956;53.362;-1.518;2024-03-02T02:22:53;5.37;;;2.03;;
70477;SDS011;57956;53.362;-1.518;2024-03-02T02:25:18;6.70;;;2.42;;
70477;SDS011;57956;53.362;-1.518;2024-03-02T02:27:44;5.87;;;1.80;;
70477;SDS011;57956;53.362;-1.518;2024-03-02T02:30:09;5.87;;;1.63;;
70477;SDS011;57956;53.362;-1.518;2024-03-02T02:32:34;5.60;;;2.00;;
70477;SDS011;57956;53.362;-1.518;2024-03-02T02:35:00;4.77;;;2.57;;
70477;SDS011;57956;53.362;-1.518;2024-03-02T02:37:25;7.20;;;2.40;;
70477;SDS011;57956;53.362;-1.518;2024-03-02T02:39:50;5.17;;;0.93;;
70477;SDS011;57956;53.362;-1.518;2024-03-02T02:42:15;8.37;;;1.80;;
70477;SDS011;57956;53.362;-1.518;2024-03-02T02:44:40;6.00;;;1.90;;
70477;SDS011;57956;53.362;-1.518;2024-03-02T02:47:06;5.80;;;1.63;;
70477;SDS011;57956;53.362;-1.518;2024-03-02T02:49:31;7.60;;;2.03;;
70477;SDS011;57956;53.362;-1.518;2024-03-02T02:51:56;5.73;;;2.23;;
70477;SDS011;57956;53.362;-1.518;2024-03-02T02:54:21;5.63;;;1.40;;
70477;SDS011;57956;53.362;-1.518;2024-03-02T02:56:47;10.07;;;3.10;;
70477;SDS011;57956;53.362;-1.518;2024-03-02T02:59:12;7.10;;;2.13;;
70477;SDS011;57956;53.362;-1.518;2024-03-02T03:01:37;5.10;;;1.93;;
70477;SDS011;57956;53.362;-1.518;2024-03-02T03:04:02;5.00;;;1.40;;
70477;SDS011;57956;53.362;-1.518;2024-03-02T03:06:28;5.43;;;1.83;;
70477;SDS011;57956;53.362;-1.518;2024-03-02T03:08:53;4.70;;;1.67;;
70477;SDS011;57956;53.362;-1.518;2024-03-02T03:11:18;14.17;;;2.03;;
70477;SDS011;57956;53.362;-1.518;2024-03-02T03:13:43;5.27;;;1.47;;
70477;SDS011;57956;53.362;-1.518;2024-03-02T03:16:08;8.13;;;1.80;;
70477;SDS011;57956;53.362;-1.518;2024-03-02T03:18:34;7.30;;;2.30;;
70477;SDS011;57956;53.362;-1.518;2024-03-02T03:20:59;7.00;;;1.80;;
70477;SDS011;57956;53.362;-1.518;2024-03-02T03:23:24;6.75;;;1.95;;
70477;SDS011;57956;53.362;-1.518;2024-03-02T03:25:50;7.47;;;2.27;;
70477;SDS011;57956;53.362;-1.518;2024-03-02T03:28:19;5.20;;;1.67;;
70477;SDS011;57956;53.362;-1.518;2024-03-02T03:30:44;4.20;;;1.65;;
70477;SDS011;57956;53.362;-1.518;2024-03-02T03:33:15;4.53;;;2.17;;
70477;SDS011;57956;53.362;-1.518;2024-03-02T03:35:40;6.25;;;2.08;;
70477;SDS011;57956;53.362;-1.518;2024-03-02T03:38:06;5.27;;;2.20;;
70477;SDS011;57956;53.362;-1.518;2024-03-02T03:40:31;4.45;;;1.83;;
70477;SDS011;57956;53.362;-1.518;2024-03-02T03:42:57;8.50;;;2.20;;
70477;SDS011;57956;53.362;-1.518;2024-03-02T03:45:22;6.33;;;2.03;;
70477;SDS011;57956;53.362;-1.518;2024-03-02T03:47:47;6.83;;;1.73;;
70477;SDS011;57956;53.362;-1.518;2024-03-02T03:50:13;7.70;;;2.17;;
70477;SDS011;57956;53.362;-1.518;2024-03-02T03:52:38;5.73;;;1.70;;
70477;SDS011;57956;53.362;-1.518;2024-03-02T03:55:03;7.37;;;1.90;;
70477;SDS011;57956;53.362;-1.518;2024-03-02T03:57:30;5.43;;;2.20;;
70477;SDS011;57956;53.362;-1.518;2024-03-02T03:59:55;5.60;;;2.30;;
70477;SDS011;57956;53.362;-1.518;2024-03-02T04:02:20;7.27;;;2.67;;
70477;SDS011;57956;53.362;-1.518;2024-03-02T04:04:45;6.07;;;2.10;;
70477;SDS011;57956;53.362;-1.518;2024-03-02T04:07:11;7.37;;;2.97;;
70477;SDS011;57956;53.362;-1.518;2024-03-02T04:09:36;6.40;;;2.27;;
70477;SDS011;57956;53.362;-1.518;2024-03-02T04:12:01;6.90;;;2.33;;
70477;SDS011;57956;53.362;-1.518;2024-03-02T04:14:27;6.90;;;2.90;;
70477;SDS011;57956;53.362;-1.518;2024-03-02T04:16:52;6.47;;;2.17;;
70477;SDS011;57956;53.362;-1.518;2024-03-02T04:19:17;5.53;;;1.70;;
70477;SDS011;57956;53.362;-1.518;2024-03-02T04:21:42;6.10;;;2.37;;
70477;SDS011;57956;53.362;-1.518;2024-03-02T04:24:08;8.50;;;3.13;;
70477;SDS011;57956;53.362;-1.518;2024-03-02T04:26:33;8.37;;;3.27;;
70477;SDS011;57956;53.362;-1.518;2024-03-02T04:28:58;7.23;;;2.67;;
70477;SDS011;57956;53.362;-1.518;2024-03-02T04:31:23;8.30;;;2.87;;
70477;SDS011;57956;53.362;-1.518;2024-03-02T04:33:48;8.70;;;3.07;;
70477;SDS011;57956;53.362;-1.518;2024-03-02T04:36:14;5.93;;;3.00;;
70477;SDS011;57956;53.362;-1.518;2024-03-02T04:38:39;6.43;;;2.40;;
70477;SDS011;57956;53.362;-1.518;2024-03-02T04:41:04;7.80;;;2.57;;
70477;SDS011;57956;53.362;-1.518;2024-03-02T04:43:31;12.73;;;3.50;;
70477;SDS011;57956;53.362;-1.518;2024-03-02T04:45:56;5.77;;;2.60;;
70477;SDS011;57956;53.362;-1.518;2024-03-02T04:48:22;8.87;;;3.17;;
70477;SDS011;57956;53.362;-1.518;2024-03-02T04:50:47;7.07;;;3.35;;
70477;SDS011;57956;53.362;-1.518;2024-03-02T04:53:12;10.73;;;4.27;;
70477;SDS011;57956;53.362;-1.518;2024-03-02T04:55:37;8.40;;;4.63;;
70477;SDS011;57956;53.362;-1.518;2024-03-02T04:58:05;8.10;;;2.95;;
70477;SDS011;57956;53.362;-1.518;2024-03-02T05:00:34;11.67;;;4.13;;
70477;SDS011;57956;53.362;-1.518;2024-03-02T05:03:00;10.25;;;3.22;;
70477;SDS011;57956;53.362;-1.518;2024-03-02T05:05:26;6.65;;;2.88;;
70477;SDS011;57956;53.362;-1.518;2024-03-02T05:07:54;10.67;;;3.83;;
70477;SDS011;57956;53.362;-1.518;2024-03-02T05:10:19;10.95;;;3.33;;
70477;SDS011;57956;53.362;-1.518;2024-03-02T05:12:44;9.37;;;4.37;;
70477;SDS011;57956;53.362;-1.518;2024-03-02T05:15:10;8.90;;;3.83;;
70477;SDS011;57956;53.362;-1.518;2024-03-02T05:17:36;9.13;;;3.97;;
70477;SDS011;57956;53.362;-1.518;2024-03-02T05:20:02;7.27;;;4.30;;
70477;SDS011;57956;53.362;-1.518;2024-03-02T05:22:27;9.63;;;3.72;;
70477;SDS011;57956;53.362;-1.518;2024-03-02T05:24:52;12.97;;;4.40;;
70477;SDS011;57956;53.362;-1.518;2024-03-02T05:27:17;8.63;;;3.30;;
70477;SDS011;57956;53.362;-1.518;2024-03-02T05:29:43;13.60;;;4.83;;
70477;SDS011;57956;53.362;-1.518;2024-03-02T05:32:08;11.60;;;3.33;;
70477;SDS011;57956;53.362;-1.518;2024-03-02T05:34:33;10.00;;;4.87;;
70477;SDS011;57956;53.362;-1.518;2024-03-02T05:37:00;11.98;;;4.95;;
70477;SDS011;57956;53.362;-1.518;2024-03-02T05:39:25;12.30;;;3.43;;
70477;SDS011;57956;53.362;-1.518;2024-03-02T05:41:51;9.50;;;3.50;;
70477;SDS011;57956;53.362;-1.518;2024-03-02T05:44:16;7.33;;;3.03;;
70477;SDS011;57956;53.362;-1.518;2024-03-02T05:46:42;12.83;;;4.77;;
70477;SDS011;57956;53.362;-1.518;2024-03-02T05:49:07;9.65;;;3.67;;
70477;SDS011;57956;53.362;-1.518;2024-03-02T05:51:33;8.63;;;3.63;;
70477;SDS011;57956;53.362;-1.518;2024-03-02T05:53:58;4.30;;;2.47;;
70477;SDS011;57956;53.362;-1.518;2024-03-02T05:56:23;5.13;;;1.87;;
70477;SDS011;57956;53.362;-1.518;2024-03-02T05:58:48;10.33;;;3.33;;
70477;SDS011;57956;53.362;-1.518;2024-03-02T06:01:33;7.25;;;2.88;;
70477;SDS011;57956;53.362;-1.518;2024-03-02T06:03:58;13.43;;;3.87;;
70477;SDS011;57956;53.362;-1.518;2024-03-02T06:06:23;6.40;;;2.70;;
70477;SDS011;57956;53.362;-1.518;2024-03-02T06:08:49;11.23;;;2.60;;
70477;SDS011;57956;53.362;-1.518;2024-03-02T06:11:14;9.83;;;3.00;;
70477;SDS011;57956;53.362;-1.518;2024-03-02T06:13:40;5.57;;;3.00;;
70477;SDS011;57956;53.362;-1.518;2024-03-02T06:16:05;8.70;;;3.40;;
70477;SDS011;57956;53.362;-1.518;2024-03-02T06:18:30;9.88;;;2.45;;
70477;SDS011;57956;53.362;-1.518;2024-03-02T06:20:55;5.80;;;2.73;;
70477;SDS011;57956;53.362;-1.518;2024-03-02T06:23:21;7.47;;;2.63;;
70477;SDS011;57956;53.362;-1.518;2024-03-02T06:25:46;10.73;;;3.33;;
70477;SDS011;57956;53.362;-1.518;2024-03-02T06:28:11;9.03;;;3.13;;
70477;SDS011;57956;53.362;-1.518;2024-03-02T06:30:39;6.53;;;4.53;;
70477;SDS011;57956;53.362;-1.518;2024-03-02T06:33:04;6.38;;;3.35;;
70477;SDS011;57956;53.362;-1.518;2024-03-02T06:35:31;12.30;;;3.60;;
70477;SDS011;57956;53.362;-1.518;2024-03-02T06:37:56;9.87;;;3.73;;
70477;SDS011;57956;53.362;-1.518;2024-03-02T06:40:23;9.27;;;3.23;;
70477;SDS011;57956;53.362;-1.518;2024-03-02T06:42:48;5.73;;;3.53;;
70477;SDS011;57956;53.362;-1.518;2024-03-02T06:45:14;9.83;;;3.60;;
70477;SDS011;57956;53.362;-1.518;2024-03-02T06:47:39;7.57;;;2.57;;
70477;SDS011;57956;53.362;-1.518;2024-03-02T06:50:04;10.53;;;2.90;;
70477;SDS011;57956;53.362;-1.518;2024-03-02T06:52:30;6.47;;;2.63;;
70477;SDS011;57956;53.362;-1.518;2024-03-02T06:54:55;10.33;;;3.70;;
70477;SDS011;57956;53.362;-1.518;2024-03-02T06:57:20;6.93;;;2.80;;
70477;SDS011;57956;53.362;-1.518;2024-03-02T06:59:45;19.45;;;3.65;;
70477;SDS011;57956;53.362;-1.518;2024-03-02T07:02:11;11.47;;;3.43;;
70477;SDS011;57956;53.362;-1.518;2024-03-02T07:04:39;10.90;;;3.67;;
70477;SDS011;57956;53.362;-1.518;2024-03-02T07:07:04;15.83;;;3.13;;
70477;SDS011;57956;53.362;-1.518;2024-03-02T07:09:29;8.67;;;2.57;;
70477;SDS011;57956;53.362;-1.518;2024-03-02T07:11:54;6.47;;;2.53;;
70477;SDS011;57956;53.362;-1.518;2024-03-02T07:14:20;11.73;;;4.10;;
70477;SDS011;57956;53.362;-1.518;2024-03-02T07:16:45;13.03;;;3.37;;
70477;SDS011;57956;53.362;-1.518;2024-03-02T07:19:10;12.60;;;3.00;;
70477;SDS011;57956;53.362;-1.518;2024-03-02T07:21:35;8.27;;;3.07;;
70477;SDS011;57956;53.362;-1.518;2024-03-02T07:24:00;10.33;;;3.87;;
70477;SDS011;57956;53.362;-1.518;2024-03-02T07:26:29;10.13;;;3.67;;
70477;SDS011;57956;53.362;-1.518;2024-03-02T07:28:56;13.32;;;3.88;;
70477;SDS011;57956;53.362;-1.518;2024-03-02T07:31:21;9.97;;;3.27;;
70477;SDS011;57956;53.362;-1.518;2024-03-02T07:33:46;12.87;;;4.33;;
70477;SDS011;57956;53.362;-1.518;2024-03-02T07:36:12;13.47;;;4.37;;
70477;SDS011;57956;53.362;-1.518;2024-03-02T07:38:38;11.35;;;2.72;;
70477;SDS011;57956;53.362;-1.518;2024-03-02T07:41:03;10.30;;;4.57;;
70477;SDS011;57956;53.362;-1.518;2024-03-02T07:43:29;8.23;;;3.33;;
70477;SDS011;57956;53.362;-1.518;2024-03-02T07:45:54;11.50;;;3.60;;
70477;SDS011;57956;53.362;-1.518;2024-03-02T07:48:20;6.40;;;2.05;;
70477;SDS011;57956;53.362;-1.518;2024-03-02T07:50:45;7.20;;;2.57;;
70477;SDS011;57956;53.362;-1.518;2024-03-02T07:53:11;9.70;;;3.57;;
70477;SDS011;57956;53.362;-1.518;2024-03-02T07:55:36;7.40;;;3.00;;
70477;SDS011;57956;53.362;-1.518;2024-03-02T07:58:01;6.00;;;2.53;;
70477;SDS011;57956;53.362;-1.518;2024-03-02T08:00:27;8.50;;;2.65;;
70477;SDS011;57956;53.362;-1.518;2024-03-02T08:02:53;11.50;;;3.03;;
70477;SDS011;57956;53.362;-1.518;2024-03-02T08:05:18;6.60;;;2.57;;
70477;SDS011;57956;53.362;-1.518;2024-03-02T08:07:46;8.23;;;3.47;;
70477;SDS011;57956;53.362;-1.518;2024-03-02T08:10:12;9.82;;;2.50;;
70477;SDS011;57956;53.362;-1.518;2024-03-02T08:12:38;7.33;;;3.40;;
70477;SDS011;57956;53.362;-1.518;2024-03-02T08:15:03;13.47;;;3.50;;
70477;SDS011;57956;53.362;-1.518;2024-03-02T08:17:29;10.80;;;3.57;;
70477;SDS011;57956;53.362;-1.518;2024-03-02T08:19:54;12.37;;;4.73;;
70477;SDS011;57956;53.362;-1.518;2024-03-02T08:22:19;9.40;;;2.67;;
70477;SDS011;57956;53.362;-1.518;2024-03-02T08:24:45;5.63;;;2.70;;
70477;SDS011;57956;53.362;-1.518;2024-03-02T08:27:10;6.40;;;2.13;;
70477;SDS011;57956;53.362;-1.518;2024-03-02T08:29:36;9.17;;;2.53;;
70477;SDS011;57956;53.362;-1.518;2024-03-02T08:32:01;4.83;;;2.40;;
70477;SDS011;57956;53.362;-1.518;2024-03-02T08:34:26;10.17;;;2.60;;
70477;SDS011;57956;53.362;-1.518;2024-03-02T08:36:51;13.40;;;3.47;;
70477;SDS011;57956;53.362;-1.518;2024-03-02T08:39:17;8.70;;;2.28;;
70477;SDS011;57956;53.362;-1.518;2024-03-02T08:41:43;5.43;;;2.03;;
70477;SDS011;57956;53.362;-1.518;2024-03-02T08:44:09;7.20;;;2.42;;
70477;SDS011;57956;53.362;-1.518;2024-03-02T08:46:35;8.80;;;2.77;;
70477;SDS011;57956;53.362;-1.518;2024-03-02T08:49:00;5.17;;;2.03;;
70477;SDS011;57956;53.362;-1.518;2024-03-02T08:51:25;7.67;;;2.40;;
70477;SDS011;57956;53.362;-1.518;2024-03-02T08:53:50;8.67;;;2.90;;
70477;SDS011;57956;53.362;-1.518;2024-03-02T08:56:16;15.90;;;2.53;;
70477;SDS011;57956;53.362;-1.518;2024-03-02T08:58:41;4.80;;;1.50;;
70477;SDS011;57956;53.362;-1.518;2024-03-02T09:01:06;8.00;;;2.93;;
70477;SDS011;57956;53.362;-1.518;2024-03-02T09:03:33;6.30;;;2.45;;
70477;SDS011;57956;53.362;-1.518;2024-03-02T09:05:58;7.53;;;1.83;;
70477;SDS011;57956;53.362;-1.518;2024-03-02T09:08:24;7.87;;;1.73;;
70477;SDS011;57956;53.362;-1.518;2024-03-02T09:10:49;5.57;;;1.83;;
70477;SDS011;57956;53.362;-1.518;2024-03-02T09:13:14;6.97;;;1.63;;
70477;SDS011;57956;53.362;-1.518;2024-03-02T09:15:39;11.00;;;3.13;;
70477;SDS011;57956;53.362;-1.518;2024-03-02T09:18:05;5.43;;;1.90;;
70477;SDS011;57956;53.362;-1.518;2024-03-02T09:20:31;5.55;;;1.85;;
70477;SDS011;57956;53.362;-1.518;2024-03-02T09:22:57;9.33;;;1.70;;
70477;SDS011;57956;53.362;-1.518;2024-03-02T09:25:22;6.73;;;2.40;;
70477;SDS011;57956;53.362;-1.518;2024-03-02T09:27:47;7.57;;;1.93;;
70477;SDS011;57956;53.362;-1.518;2024-03-02T09:30:12;2.73;;;1.07;;
70477;SDS011;57956;53.362;-1.518;2024-03-02T09:32:39;9.63;;;1.95;;
70477;SDS011;57956;53.362;-1.518;2024-03-02T09:35:04;13.47;;;1.47;;
70477;SDS011;57956;53.362;-1.518;2024-03-02T09:37:29;3.37;;;1.00;;
70477;SDS011;57956;53.362;-1.518;2024-03-02T09:39:55;12.40;;;2.77;;
70477;SDS011;57956;53.362;-1.518;2024-03-02T09:42:20;5.60;;;1.30;;
70477;SDS011;57956;53.362;-1.518;2024-03-02T09:44:46;6.18;;;1.40;;
70477;SDS011;57956;53.362;-1.518;2024-03-02T09:47:12;4.10;;;1.07;;
70477;SDS011;57956;53.362;-1.518;2024-03-02T09:49:38;7.50;;;1.83;;
70477;SDS011;57956;53.362;-1.518;2024-03-02T09:52:03;4.53;;;1.30;;
70477;SDS011;57956;53.362;-1.518;2024-03-02T09:54:29;5.60;;;1.75;;
70477;SDS011;57956;53.362;-1.518;2024-03-02T09:56:55;4.10;;;1.50;;
70477;SDS011;57956;53.362;-1.518;2024-03-02T09:59:22;9.65;;;3.17;;
70477;SDS011;57956;53.362;-1.518;2024-03-02T10:01:57;5.20;;;1.70;;
70477;SDS011;57956;53.362;-1.518;2024-03-02T10:04:25;6.20;;;1.42;;
70477;SDS011;57956;53.362;-1.518;2024-03-02T10:06:51;5.17;;;1.27;;
70477;SDS011;57956;53.362;-1.518;2024-03-02T10:09:28;3.55;;;1.25;;
70477;SDS011;57956;53.362;-1.518;2024-03-02T10:12:01;4.43;;;1.27;;
70477;SDS011;57956;53.362;-1.518;2024-03-02T10:14:28;3.60;;;1.30;;
70477;SDS011;57956;53.362;-1.518;2024-03-02T10:16:53;6.53;;;1.33;;
70477;SDS011;57956;53.362;-1.518;2024-03-02T10:19:26;6.03;;;1.53;;
70477;SDS011;57956;53.362;-1.518;2024-03-02T10:21:52;5.27;;;1.33;;
70477;SDS011;57956;53.362;-1.518;2024-03-02T10:24:18;3.40;;;1.10;;
70477;SDS011;57956;53.362;-1.518;2024-03-02T10:26:43;4.63;;;1.05;;
70477;SDS011;57956;53.362;-1.518;2024-03-02T10:29:11;3.63;;;0.93;;
70477;SDS011;57956;53.362;-1.518;2024-03-02T10:31:41;6.03;;;1.50;;
70477;SDS011;57956;53.362;-1.518;2024-03-02T10:34:07;6.57;;;1.48;;
70477;SDS011;57956;53.362;-1.518;2024-03-02T10:36:33;3.57;;;0.90;;
70477;SDS011;57956;53.362;-1.518;2024-03-02T10:39:01;4.68;;;1.23;;
70477;SDS011;57956;53.362;-1.518;2024-03-02T10:41:26;4.40;;;1.83;;
70477;SDS011;57956;53.362;-1.518;2024-03-02T10:43:54;5.57;;;1.63;;
70477;SDS011;57956;53.362;-1.518;2024-03-02T10:46:26;3.78;;;0.88;;
70477;SDS011;57956;53.362;-1.518;2024-03-02T10:48:52;4.55;;;1.67;;
70477;SDS011;57956;53.362;-1.518;2024-03-02T10:51:18;5.87;;;1.47;;
70477;SDS011;57956;53.362;-1.518;2024-03-02T10:53:43;4.23;;;1.73;;
70477;SDS011;57956;53.362;-1.518;2024-03-02T10:56:09;3.60;;;1.08;;
70477;SDS011;57956;53.362;-1.518;2024-03-02T10:58:35;4.20;;;1.25;;
70477;SDS011;57956;53.362;-1.518;2024-03-02T11:01:04;4.47;;;1.07;;
70477;SDS011;57956;53.362;-1.518;2024-03-02T11:03:31;3.47;;;1.17;;
70477;SDS011;57956;53.362;-1.518;2024-03-02T11:05:58;17.83;;;3.00;;
70477;SDS011;57956;53.362;-1.518;2024-03-02T11:08:24;5.57;;;1.33;;
70477;SDS011;57956;53.362;-1.518;2024-03-02T11:10:52;3.03;;;0.85;;
70477;SDS011;57956;53.362;-1.518;2024-03-02T11:13:22;6.33;;;1.80;;
70477;SDS011;57956;53.362;-1.518;2024-03-02T11:15:49;5.47;;;1.23;;
70477;SDS011;57956;53.362;-1.518;2024-03-02T11:18:16;6.13;;;2.20;;
70477;SDS011;57956;53.362;-1.518;2024-03-02T11:20:42;10.87;;;1.70;;
70477;SDS011;57956;53.362;-1.518;2024-03-02T11:23:08;5.90;;;1.38;;
70477;SDS011;57956;53.362;-1.518;2024-03-02T11:25:34;7.40;;;1.75;;
70477;SDS011;57956;53.362;-1.518;2024-03-02T11:28:00;4.97;;;1.27;;
70477;SDS011;57956;53.362;-1.518;2024-03-02T11:33:06;15.00;;;1.38;;
70477;SDS011;57956;53.362;-1.518;2024-03-02T11:35:32;8.40;;;1.53;;
70477;SDS011;57956;53.362;-1.518;2024-03-02T11:37:58;4.68;;;1.10;;
70477;SDS011;57956;53.362;-1.518;2024-03-02T11:40:30;3.33;;;0.90;;
70477;SDS011;57956;53.362;-1.518;2024-03-02T11:43:02;6.70;;;1.33;;
70477;SDS011;57956;53.362;-1.518;2024-03-02T11:45:27;4.03;;;0.97;;
70477;SDS011;57956;53.362;-1.518;2024-03-02T11:47:56;3.88;;;0.88;;
70477;SDS011;57956;53.362;-1.518;2024-03-02T11:50:57;4.07;;;1.17;;
70477;SDS011;57956;53.362;-1.518;2024-03-02T11:53:13;5.63;;;1.50;;
70477;SDS011;57956;53.362;-1.518;2024-03-02T11:55:39;4.83;;;1.23;;
70477;SDS011;57956;53.362;-1.518;2024-03-02T11:58:14;7.03;;;1.13;;
70477;SDS011;57956;53.362;-1.518;2024-03-02T12:00:39;5.15;;;1.42;;
70477;SDS011;57956;53.362;-1.518;2024-03-02T12:03:08;4.17;;;1.00;;
70477;SDS011;57956;53.362;-1.518;2024-03-02T12:05:36;8.10;;;1.33;;
70477;SDS011;57956;53.362;-1.518;2024-03-02T12:08:03;4.03;;;0.80;;
70477;SDS011;57956;53.362;-1.518;2024-03-02T12:10:29;8.20;;;1.30;;
70477;SDS011;57956;53.362;-1.518;2024-03-02T12:15:26;6.72;;;1.20;;
70477;SDS011;57956;53.362;-1.518;2024-03-02T12:17:55;3.05;;;0.90;;
70477;SDS011;57956;53.362;-1.518;2024-03-02T12:20:21;4.10;;;1.13;;
70477;SDS011;57956;53.362;-1.518;2024-03-02T12:22:48;2.93;;;0.60;;
70477;SDS011;57956;53.362;-1.518;2024-03-02T12:25:14;6.10;;;1.15;;
70477;SDS011;57956;53.362;-1.518;2024-03-02T12:27:40;3.95;;;1.00;;
70477;SDS011;57956;53.362;-1.518;2024-03-02T12:30:06;3.27;;;1.27;;
70477;SDS011;57956;53.362;-1.518;2024-03-02T12:32:35;4.75;;;0.85;;
70477;SDS011;57956;53.362;-1.518;2024-03-02T12:35:00;4.03;;;0.97;;
70477;SDS011;57956;53.362;-1.518;2024-03-02T12:37:26;6.57;;;1.13;;
70477;SDS011;57956;53.362;-1.518;2024-03-02T12:39:52;2.50;;;0.67;;
70477;SDS011;57956;53.362;-1.518;2024-03-02T12:42:18;2.03;;;0.40;;
70477;SDS011;57956;53.362;-1.518;2024-03-02T12:44:43;5.80;;;1.43;;
70477;SDS011;57956;53.362;-1.518;2024-03-02T12:47:08;3.93;;;0.57;;
70477;SDS011;57956;53.362;-1.518;2024-03-02T12:49:33;1.20;;;0.10;;
70477;SDS011;57956;53.362;-1.518;2024-03-02T12:52:00;3.33;;;0.50;;
70477;SDS011;57956;53.362;-1.518;2024-03-02T12:54:25;1.33;;;0.43;;
70477;SDS011;57956;53.362;-1.518;2024-03-02T12:56:52;1.20;;;0.20;;
70477;SDS011;57956;53.362;-1.518;2024-03-02T12:59:19;1.00;;;0.28;;
70477;SDS011;57956;53.362;-1.518;2024-03-02T13:01:50;1.60;;;0.30;;
70477;SDS011;57956;53.362;-1.518;2024-03-02T13:04:15;1.00;;;0.20;;
70477;SDS011;57956;53.362;-1.518;2024-03-02T13:06:40;4.50;;;0.30;;
70477;SDS011;57956;53.362;-1.518;2024-03-02T13:09:05;0.97;;;0.10;;
70477;SDS011;57956;53.362;-1.518;2024-03-02T13:11:39;1.17;;;0.20;;
70477;SDS011;57956;53.362;-1.518;2024-03-02T13:14:04;1.53;;;0.20;;
70477;SDS011;57956;53.362;-1.518;2024-03-02T13:16:30;1.17;;;0.20;;
70477;SDS011;57956;53.362;-1.518;2024-03-02T13:18:55;1.17;;;0.23;;
70477;SDS011;57956;53.362;-1.518;2024-03-02T13:21:20;1.23;;;0.20;;
70477;SDS011;57956;53.362;-1.518;2024-03-02T13:23:46;1.30;;;0.20;;
70477;SDS011;57956;53.362;-1.518;2024-03-02T13:26:11;2.87;;;0.90;;
70477;SDS011;57956;53.362;-1.518;2024-03-02T13:28:37;1.20;;;0.10;;
70477;SDS011;57956;53.362;-1.518;2024-03-02T13:31:03;1.50;;;0.20;;
70477;SDS011;57956;53.362;-1.518;2024-03-02T13:33:28;1.67;;;0.20;;
70477;SDS011;57956;53.362;-1.518;2024-03-02T13:35:57;2.30;;;0.20;;
70477;SDS011;57956;53.362;-1.518;2024-03-02T13:38:22;2.65;;;0.20;;
70477;SDS011;57956;53.362;-1.518;2024-03-02T13:40:48;1.70;;;0.20;;
70477;SDS011;57956;53.362;-1.518;2024-03-02T13:43:16;1.48;;;0.50;;
70477;SDS011;57956;53.362;-1.518;2024-03-02T13:45:41;1.65;;;0.50;;
70477;SDS011;57956;53.362;-1.518;2024-03-02T13:48:07;1.60;;;0.30;;
70477;SDS011;57956;53.362;-1.518;2024-03-02T13:50:35;2.03;;;0.20;;
70477;SDS011;57956;53.362;-1.518;2024-03-02T13:53:00;4.63;;;0.30;;
70477;SDS011;57956;53.362;-1.518;2024-03-02T13:55:25;1.47;;;0.20;;
70477;SDS011;57956;53.362;-1.518;2024-03-02T13:57:50;1.10;;;0.20;;
70477;SDS011;57956;53.362;-1.518;2024-03-02T14:00:16;1.33;;;0.20;;
70477;SDS011;57956;53.362;-1.518;2024-03-02T14:02:42;1.38;;;0.30;;
70477;SDS011;57956;53.362;-1.518;2024-03-02T14:05:13;1.33;;;0.27;;
70477;SDS011;57956;53.362;-1.518;2024-03-02T14:07:39;1.52;;;0.20;;
70477;SDS011;57956;53.362;-1.518;2024-03-02T14:10:04;1.50;;;0.27;;
70477;SDS011;57956;53.362;-1.518;2024-03-02T14:12:29;3.93;;;0.50;;
70477;SDS011;57956;53.362;-1.518;2024-03-02T14:14:55;1.80;;;0.30;;
70477;SDS011;57956;53.362;-1.518;2024-03-02T14:17:23;1.80;;;0.30;;
70477;SDS011;57956;53.362;-1.518;2024-03-02T14:19:48;2.07;;;0.27;;
70477;SDS011;57956;53.362;-1.518;2024-03-02T14:22:13;0.90;;;0.10;;
70477;SDS011;57956;53.362;-1.518;2024-03-02T14:24:42;1.25;;;0.20;;
70477;SDS011;57956;53.362;-1.518;2024-03-02T14:27:08;2.05;;;0.22;;
70477;SDS011;57956;53.362;-1.518;2024-03-02T14:29:33;1.67;;;0.37;;
70477;SDS011;57956;53.362;-1.518;2024-03-02T14:32:01;1.73;;;0.32;;
70477;SDS011;57956;53.362;-1.518;2024-03-02T14:34:26;1.30;;;0.40;;
70477;SDS011;57956;53.362;-1.518;2024-03-02T14:36:52;1.17;;;0.17;;